createdAt,value
2019-04-21T00:00:45.629Z,99493.20
2019-04-21T00:03:18.953Z,99494.22
2019-04-21T00:06:04.613Z,99497.26
2019-04-21T00:08:39.242Z,99493.38
2019-04-21T00:11:10.343Z,99500.55
2019-04-21T00:13:28.191Z,99490.80
2019-04-21T00:15:53.901Z,99493.69
2019-04-21T00:18:49.869Z,99489.00
2019-04-21T00:21:22.292Z,99471.34
2019-04-21T00:24:01.294Z,99471.34
2019-04-21T00:26:33.308Z,99478.67
2019-04-21T00:29:09.129Z,99478.83
2019-04-21T00:31:33.930Z,99480.42
2019-04-21T00:33:51.540Z,99477.91
2019-04-21T00:36:29.278Z,99471.09
2019-04-21T00:39:24.832Z,99470.09
2019-04-21T00:41:43.917Z,99464.66
2019-04-21T00:44:08.667Z,99461.11
2019-04-21T00:46:44.912Z,99460.85
2019-04-21T00:49:16.926Z,99457.25
2019-04-21T00:52:14.414Z,99457.25
2019-04-21T00:54:44.329Z,99456.25
2019-04-21T00:57:12.047Z,99446.17
2019-04-21T00:59:43.276Z,99450.62
2019-04-21T01:02:09.910Z,99453.90
2019-04-21T01:04:42.859Z,99449.88
2019-04-21T01:07:17.651Z,99451.16
2019-04-21T01:09:43.699Z,99451.28
2019-04-21T01:12:19.035Z,99444.91
2019-04-21T01:14:58.125Z,99446.36
2019-04-21T01:17:21.917Z,99451.50
2019-04-21T01:19:51.366Z,99452.89
2019-04-21T01:22:05.404Z,99449.78
2019-04-21T01:24:39.603Z,99453.20
2019-04-21T01:27:17.589Z,99447.67
2019-04-21T01:29:59.806Z,99449.11
2019-04-21T01:32:29.678Z,99450.98
2019-04-21T01:35:04.768Z,99451.75
2019-04-21T01:37:40.855Z,99441.70
2019-04-21T01:40:09.745Z,99442.80
2019-04-21T01:42:31.547Z,99440.75
2019-04-21T01:45:21.279Z,99436.73
2019-04-21T01:47:52.171Z,99433.97
2019-04-21T01:50:27.494Z,99434.55
2019-04-21T01:53:20.529Z,99437.18
2019-04-21T01:56:14.844Z,99430.81
2019-04-21T01:58:40.212Z,99429.83
2019-04-21T02:01:22.744Z,99433.16
2019-04-21T02:06:29.026Z,99416.41
2019-04-21T02:08:56.055Z,99425.00
2019-04-21T02:11:30.996Z,99427.23
2019-04-21T02:14:09.032Z,99414.18
2019-04-21T02:16:28.365Z,99419.05
2019-04-21T02:18:58.852Z,99420.11
2019-04-21T02:21:36.873Z,99420.11
2019-04-21T02:24:05.098Z,99417.27
2019-04-21T02:26:33.591Z,99424.86
2019-04-21T02:29:07.091Z,99415.53
2019-04-21T02:31:50.456Z,99417.84
2019-04-21T02:34:38.376Z,99408.34
2019-04-21T02:36:59.778Z,99404.53
2019-04-21T02:39:19.248Z,99408.90
2019-04-21T02:41:54.651Z,99399.91
2019-04-21T02:46:54.678Z,99395.77
2019-04-21T02:49:45.191Z,99396.09
2019-04-21T02:51:52.602Z,99397.58
2019-04-21T03:07:21.587Z,99372.45
2019-04-21T03:09:49.714Z,99368.89
2019-04-21T03:12:24.586Z,99362.70
2019-04-21T03:17:32.444Z,99357.62
2019-04-21T03:20:02.867Z,99348.47
2019-04-21T03:27:50.865Z,99343.74
2019-04-21T03:30:14.253Z,99344.22
2019-04-21T03:37:39.908Z,99333.70
2019-04-21T03:40:16.799Z,99337.72
2019-04-21T03:45:25.124Z,99325.41
2019-04-21T03:47:50.171Z,99325.41
2019-04-21T03:50:20.518Z,99325.56
2019-04-21T03:52:53.393Z,99324.94
2019-04-21T03:55:48.750Z,99325.45
2019-04-21T03:58:15.116Z,99321.98
2019-04-21T04:06:38.763Z,99322.63
2019-04-21T04:09:19.524Z,99328.88
2019-04-21T04:16:49.761Z,99325.70
2019-04-21T04:21:52.446Z,99323.13
2019-04-21T04:24:24.336Z,99323.50
2019-04-21T04:26:47.541Z,99323.36
2019-04-21T04:29:19.941Z,99325.11
2019-04-21T04:31:42.758Z,99332.42
2019-04-21T04:34:24.814Z,99331.05
2019-04-21T04:37:12.392Z,99338.60
2019-04-21T04:39:48.703Z,99330.25
2019-04-21T04:42:31.323Z,99324.11
2019-04-21T04:45:04.399Z,99324.11
2019-04-21T04:49:51.572Z,99324.78
2019-04-21T04:52:32.870Z,99324.54
2019-04-21T04:55:00.681Z,99321.83
2019-04-21T05:00:14.354Z,99323.70
2019-04-21T05:10:33.033Z,99325.23
2019-04-21T05:12:38.810Z,99324.80
2019-04-21T05:15:07.887Z,99322.87
2019-04-21T05:20:11.645Z,99319.08
2019-04-21T05:22:35.497Z,99321.95
2019-04-21T05:25:03.425Z,99320.23
2019-04-21T05:27:45.178Z,99325.21
2019-04-21T05:30:42.228Z,99312.09
2019-04-21T05:33:33.209Z,99312.29
2019-04-21T05:36:11.398Z,99321.41
2019-04-21T05:38:53.095Z,99321.41
2019-04-21T05:41:19.472Z,99313.52
2019-04-21T05:43:56.527Z,99318.36
2019-04-21T05:46:32.346Z,99320.55
2019-04-21T05:49:03.818Z,99326.05
2019-04-21T05:51:34.166Z,99326.71
2019-04-21T05:54:21.414Z,99329.02
2019-04-21T05:56:46.072Z,99330.34
2019-04-21T05:59:07.952Z,99328.80
2019-04-21T06:01:50.331Z,99335.44
2019-04-21T06:04:17.143Z,99333.23
2019-04-21T06:06:49.785Z,99343.28
2019-04-21T06:09:15.823Z,99327.59
2019-04-21T06:11:42.437Z,99327.59
2019-04-21T06:14:14.425Z,99337.69
2019-04-21T06:16:52.032Z,99340.85
2019-04-21T06:19:23.656Z,99331.80
2019-04-21T06:21:47.851Z,99332.56
2019-04-21T06:24:17.614Z,99334.02
2019-04-21T06:26:59.335Z,99332.02
2019-04-21T06:29:24.010Z,99336.15
2019-04-21T06:32:16.682Z,99336.15
2019-04-21T06:34:24.404Z,99327.37
2019-04-21T06:37:21.523Z,99328.42
2019-04-21T06:39:54.050Z,99325.35
2019-04-21T06:42:09.177Z,99324.99
2019-04-21T06:44:48.219Z,99324.67
2019-04-21T06:47:26.607Z,99324.88
2019-04-21T06:49:44.269Z,99313.74
2019-04-21T06:52:33.422Z,99308.81
2019-04-21T06:54:50.758Z,99322.85
2019-04-21T06:57:16.809Z,99315.55
2019-04-21T06:59:43.631Z,99312.16
2019-04-21T07:04:50.058Z,99298.52
2019-04-21T07:07:17.200Z,99298.52
2019-04-21T07:09:52.891Z,99295.19
2019-04-21T07:12:19.805Z,99295.19
2019-04-21T07:14:52.671Z,99309.18
2019-04-21T07:17:29.390Z,99305.95
2019-04-21T07:20:00.184Z,99307.64
2019-04-21T07:22:32.374Z,99305.42
2019-04-21T07:24:57.031Z,99311.95
2019-04-21T07:27:30.162Z,99304.19
2019-04-21T07:30:06.756Z,99301.64
2019-04-21T07:32:36.061Z,99305.64
2019-04-21T07:35:08.466Z,99307.34
2019-04-21T07:37:35.391Z,99309.14
2019-04-21T07:40:03.814Z,99304.75
2019-04-21T07:42:32.852Z,99308.84
2019-04-21T07:45:00.695Z,99301.31
2019-04-21T07:47:48.103Z,99295.56
2019-04-21T07:50:29.842Z,99295.56
2019-04-21T07:53:07.035Z,99299.31
2019-04-21T07:58:22.627Z,99300.83
2019-04-21T08:00:45.364Z,99287.69
2019-04-21T08:03:09.355Z,99286.16
2019-04-21T08:05:47.123Z,99273.28
2019-04-21T08:08:01.427Z,99273.28
2019-04-21T08:10:39.187Z,99277.64
2019-04-21T08:13:22.040Z,99278.84
2019-04-21T08:15:58.315Z,99274.44
2019-04-21T08:18:12.989Z,99267.29
2019-04-21T08:20:45.255Z,99274.88
2019-04-21T08:23:21.582Z,99276.05
2019-04-21T08:25:58.969Z,99266.01
2019-04-21T08:28:22.518Z,99271.02
2019-04-21T08:30:47.731Z,99268.52
2019-04-21T08:33:25.064Z,99264.20
2019-04-21T08:38:21.851Z,99268.66
2019-04-21T08:40:54.209Z,99262.83
2019-04-21T08:43:32.029Z,99252.36
2019-04-21T08:45:52.727Z,99252.36
2019-04-21T08:48:26.838Z,99236.42
2019-04-21T08:51:06.805Z,99236.42
2019-04-21T08:53:50.575Z,99242.05
2019-04-21T08:56:28.759Z,99245.73
2019-04-21T08:59:28.863Z,99238.50
2019-04-21T09:02:16.517Z,99235.03
2019-04-21T09:04:30.186Z,99228.88
2019-04-21T09:07:04.543Z,99228.88
2019-04-21T09:09:37.867Z,99231.23
2019-04-21T09:12:15.030Z,99215.95
2019-04-21T09:14:31.052Z,99208.25
2019-04-21T09:17:00.420Z,99197.75
2019-04-21T09:19:44.518Z,99206.69
2019-04-21T09:22:05.843Z,99187.16
2019-04-21T09:24:42.785Z,99186.31
2019-04-21T09:27:09.694Z,99168.89
2019-04-21T09:29:32.533Z,99170.09
2019-04-21T09:31:55.838Z,99169.50
2019-04-21T09:34:30.536Z,99173.01
2019-04-21T09:37:10.498Z,99168.41
2019-04-21T09:39:29.179Z,99161.97
2019-04-21T09:41:59.089Z,99140.43
2019-04-21T09:44:32.924Z,99140.43
2019-04-21T09:47:01.270Z,99152.00
2019-04-21T09:49:31.736Z,99148.25
2019-04-21T09:51:59.983Z,99160.56
2019-04-21T09:54:33.670Z,99144.14
2019-04-21T09:57:06.090Z,99143.41
2019-04-21T09:59:37.045Z,99143.41
2019-04-21T10:02:11.598Z,99148.60
2019-04-21T10:04:37.807Z,99136.67
2019-04-21T10:07:08.943Z,99134.19
2019-04-21T10:09:39.457Z,99124.55
2019-04-21T10:12:09.866Z,99119.28
2019-04-21T10:14:38.902Z,99118.47
2019-04-21T10:17:24.468Z,99109.99
2019-04-21T10:19:53.542Z,99114.58
2019-04-21T10:22:23.216Z,99108.48
2019-04-21T10:24:52.419Z,99096.70
2019-04-21T10:27:21.562Z,99090.08
2019-04-21T10:29:50.618Z,99068.97
2019-04-21T10:32:24.002Z,99068.97
2019-04-21T10:34:53.149Z,99091.10
2019-04-21T10:37:36.552Z,99081.04
2019-04-21T10:39:53.882Z,99091.83
2019-04-21T10:42:23.676Z,99074.23
2019-04-21T10:44:52.763Z,99081.23
2019-04-21T10:47:22.769Z,99071.03
2019-04-21T10:49:52.868Z,99060.66
2019-04-21T10:52:42.694Z,99047.09
2019-04-21T10:55:32.335Z,99047.09
2019-04-21T10:58:04.404Z,99061.72
2019-04-21T11:00:34.330Z,99045.96
2019-04-21T11:03:24.752Z,99054.52
2019-04-21T11:05:54.672Z,99041.36
2019-04-21T11:08:30.296Z,99049.16
2019-04-21T11:10:54.564Z,99032.91
2019-04-21T11:13:23.583Z,99039.36
2019-04-21T11:15:52.984Z,99039.36
2019-04-21T11:18:21.999Z,99040.31
2019-04-21T11:20:51.214Z,99019.77
2019-04-21T11:23:22.382Z,99020.45
2019-04-21T11:25:51.727Z,99013.27
2019-04-21T11:28:21.324Z,99018.27
2019-04-21T11:30:51.006Z,99012.23
2019-04-21T11:33:21.319Z,99009.51
2019-04-21T11:35:51.307Z,99017.48
2019-04-21T11:38:29.139Z,99017.48
2019-04-21T11:40:58.127Z,99005.57
2019-04-21T11:43:27.405Z,99004.69
2019-04-21T11:45:56.434Z,99002.98
2019-04-21T11:48:28.309Z,99002.39
2019-04-21T11:50:59.148Z,98990.42
2019-04-21T11:53:28.789Z,98990.42
2019-04-21T11:55:58.774Z,98986.25
2019-04-21T11:58:29.878Z,98987.09
2019-04-21T12:01:00.349Z,98993.14
2019-04-21T12:03:29.583Z,98991.39
2019-04-21T12:05:59.440Z,98989.36
2019-04-21T12:08:35.046Z,98979.67
2019-04-21T12:10:59.729Z,98978.73
2019-04-21T12:13:30.296Z,98962.60
2019-04-21T12:15:59.496Z,98967.60
2019-04-21T12:18:30.144Z,98977.27
2019-04-21T12:20:59.403Z,98976.09
2019-04-21T12:23:28.393Z,98971.52
2019-04-21T12:25:58.990Z,98971.48
2019-04-21T12:28:28.132Z,98964.21
2019-04-21T12:30:57.918Z,98959.31
2019-04-21T12:33:42.222Z,98961.94
2019-04-21T12:36:11.733Z,98946.03
2019-04-21T12:38:47.936Z,98943.75
2019-04-21T12:41:12.566Z,98940.49
2019-04-21T12:43:42.578Z,98944.29
2019-04-21T12:46:11.997Z,98933.83
2019-04-21T12:48:42.072Z,98928.98
2019-04-21T12:51:12.253Z,98918.75
2019-04-21T12:53:41.674Z,98920.16
2019-04-21T12:56:11.799Z,98904.52
2019-04-21T12:58:41.529Z,98918.91
2019-04-21T13:01:10.488Z,98913.33
2019-04-21T13:03:39.860Z,98899.38
2019-04-21T13:06:09.978Z,98899.38
2019-04-21T13:08:49.749Z,98892.48
2019-04-21T13:11:11.515Z,98889.27
2019-04-21T13:13:42.062Z,98893.17
2019-04-21T13:16:13.674Z,98891.60
2019-04-21T13:18:42.797Z,98881.56
2019-04-21T13:21:12.050Z,98887.31
2019-04-21T13:23:41.279Z,98876.56
2019-04-21T13:26:11.418Z,98865.50
2019-04-21T13:28:40.606Z,98854.73
2019-04-21T13:31:09.690Z,98859.88
2019-04-21T13:33:39.784Z,98859.88
2019-04-21T13:36:09.706Z,98852.50
2019-04-21T13:39:26.236Z,98854.31
2019-04-21T13:41:41.666Z,98845.68
2019-04-21T13:44:15.761Z,98841.33
2019-04-21T13:46:46.975Z,98839.59
2019-04-21T13:49:17.197Z,98843.19
2019-04-21T13:51:47.864Z,98834.09
2019-04-21T13:54:18.048Z,98827.05
2019-04-21T13:56:47.041Z,98820.90
2019-04-21T13:59:16.292Z,98824.75
2019-04-21T14:01:45.696Z,98812.28
2019-04-21T14:04:15.866Z,98807.03
2019-04-21T14:06:45.107Z,98801.38
2019-04-21T14:09:15.607Z,98793.66
2019-04-21T14:11:45.290Z,98792.92
2019-04-21T14:14:14.532Z,98787.04
2019-04-21T14:16:44.163Z,98791.41
2019-04-21T14:19:15.316Z,98785.09
2019-04-21T14:21:48.125Z,98789.34
2019-04-21T14:24:17.083Z,98778.31
2019-04-21T14:26:46.439Z,98779.69
2019-04-21T14:29:15.622Z,98770.38
2019-04-21T14:31:44.336Z,98774.42
2019-04-21T14:34:14.338Z,98766.45
2019-04-21T14:36:42.867Z,98762.88
2019-04-21T14:40:33.258Z,98764.50
2019-04-21T14:43:02.618Z,98759.09
2019-04-21T14:45:57.117Z,98755.88
2019-04-21T14:49:05.443Z,98756.38
2019-04-21T14:51:45.503Z,98757.80
2019-04-21T14:54:38.406Z,98759.28
2019-04-21T14:57:09.213Z,98743.12
2019-04-21T14:59:39.301Z,98740.38
2019-04-21T15:02:09.868Z,98749.52
2019-04-21T15:04:39.800Z,98740.59
2019-04-21T15:07:09.819Z,98734.08
2019-04-21T15:09:41.211Z,98739.39
2019-04-21T15:12:11.875Z,98735.63
2019-04-21T15:14:42.179Z,98735.63
2019-04-21T15:17:12.748Z,98738.96
2019-04-21T15:19:52.278Z,98739.53
2019-04-21T15:22:16.517Z,98732.66
2019-04-21T15:24:45.602Z,98736.34
2019-04-21T15:27:14.866Z,98718.89
2019-04-21T15:29:44.864Z,98718.89
2019-04-21T15:32:14.885Z,98720.81
2019-04-21T15:34:44.384Z,98730.87
2019-04-21T15:37:15.701Z,98724.12
2019-04-21T15:39:44.952Z,98719.27
2019-04-21T15:42:14.626Z,98713.82
2019-04-21T15:44:44.931Z,98716.78
2019-04-21T15:47:15.795Z,98712.66
2019-04-21T15:50:00.951Z,98712.08
2019-04-21T15:52:27.986Z,98707.52
2019-04-21T15:55:03.165Z,98710.81
2019-04-21T15:57:49.007Z,98710.27
2019-04-21T16:00:24.660Z,98702.31
2019-04-21T16:02:54.852Z,98701.59
2019-04-21T16:05:24.553Z,98698.16
2019-04-21T16:07:54.185Z,98692.13
2019-04-21T16:10:34.638Z,98692.13
2019-04-21T16:12:56.001Z,98696.41
2019-04-21T16:15:26.138Z,98686.70
2019-04-21T16:17:55.458Z,98682.16
2019-04-21T16:20:25.921Z,98681.89
2019-04-21T16:22:56.750Z,98698.63
2019-04-21T16:25:26.713Z,98679.70
2019-04-21T16:27:55.736Z,98681.43
2019-04-21T16:30:24.014Z,98677.81
2019-04-21T16:32:54.420Z,98676.22
2019-04-21T16:35:24.933Z,98676.44
2019-04-21T16:37:59.465Z,98672.66
2019-04-21T16:40:46.798Z,98662.03
2019-04-21T16:43:08.130Z,98668.78
2019-04-21T16:45:39.117Z,98665.16
2019-04-21T16:48:09.476Z,98661.97
2019-04-21T16:50:39.578Z,98660.66
2019-04-21T16:53:19.979Z,98659.91
2019-04-21T16:55:55.029Z,98659.67
2019-04-21T16:58:32.633Z,98653.16
2019-04-21T17:01:10.763Z,98656.45
2019-04-21T17:03:37.511Z,98660.46
2019-04-21T17:06:09.015Z,98646.12
2019-04-21T17:08:40.920Z,98641.84
2019-04-21T17:11:18.743Z,98643.66
2019-04-21T17:13:43.008Z,98648.51
2019-04-21T17:16:40.797Z,98648.19
2019-04-21T17:18:57.471Z,98644.31
2019-04-21T17:21:15.282Z,98645.58
2019-04-21T17:23:46.509Z,98629.58
2019-04-21T17:26:17.070Z,98629.58
2019-04-21T17:28:46.741Z,98646.05
2019-04-21T17:31:16.246Z,98646.05
2019-04-21T17:33:47.152Z,98638.19
2019-04-21T17:36:18.913Z,98638.59
2019-04-21T17:38:48.580Z,98642.17
2019-04-21T17:41:29.465Z,98639.63
2019-04-21T17:43:49.978Z,98635.93
2019-04-21T17:46:24.572Z,98635.30
2019-04-21T17:48:49.909Z,98642.80
2019-04-21T17:51:49.213Z,98637.56
2019-04-21T17:54:31.719Z,98637.15
2019-04-21T17:57:16.302Z,98647.59
2019-04-21T18:02:23.499Z,98640.66
2019-04-21T18:04:51.006Z,98640.72
2019-04-21T18:07:27.573Z,98639.05
2019-04-21T18:10:04.936Z,98641.72
2019-04-21T18:12:33.411Z,98649.11
2019-04-21T18:15:02.404Z,98648.84
2019-04-21T18:17:22.783Z,98638.08
2019-04-21T18:19:54.866Z,98638.08
2019-04-21T18:22:51.268Z,98638.77
2019-04-21T18:25:33.215Z,98639.36
2019-04-21T18:27:52.919Z,98643.75
2019-04-21T18:30:49.643Z,98636.93
2019-04-21T18:33:27.361Z,98642.19
2019-04-21T18:36:13.450Z,98636.30
2019-04-21T18:39:10.024Z,98639.75
2019-04-21T18:41:30.127Z,98634.80
2019-04-21T18:44:44.343Z,98631.47
2019-04-21T18:47:09.696Z,98631.47
2019-04-21T18:49:40.912Z,98647.62
2019-04-21T18:52:22.273Z,98645.73
2019-04-21T18:55:00.162Z,98652.53
2019-04-21T18:57:27.405Z,98648.61
2019-04-21T18:59:51.299Z,98649.91
2019-04-21T19:02:23.068Z,98657.00
2019-04-21T19:04:59.500Z,98655.30
2019-04-21T19:07:45.516Z,98650.50
2019-04-21T19:11:01.157Z,98650.50
2019-04-21T19:16:57.835Z,98661.05
2019-04-21T19:19:35.379Z,98662.03
2019-04-21T19:21:32.537Z,98662.03
2019-04-21T19:24:21.528Z,98654.89
2019-04-21T19:26:46.630Z,98654.89
2019-04-21T19:29:20.671Z,98662.84
2019-04-21T19:31:46.595Z,98657.09
2019-04-21T19:34:03.160Z,98660.84
2019-04-21T19:36:25.814Z,98658.72
2019-04-21T19:42:30.711Z,98658.53
2019-04-21T19:45:05.275Z,98665.05
2019-04-21T19:47:41.699Z,98660.29
2019-04-21T19:50:12.024Z,98653.70
2019-04-21T19:52:34.050Z,98653.70
2019-04-21T19:54:54.997Z,98659.09
2019-04-21T19:57:25.235Z,98651.30
2019-04-21T19:59:57.401Z,98651.30
2019-04-21T20:02:26.823Z,98644.60
2019-04-21T20:05:03.142Z,98644.60
2019-04-21T20:07:43.825Z,98655.52
2019-04-21T20:10:23.689Z,98653.02
2019-04-21T20:12:47.390Z,98647.44
2019-04-21T20:16:07.913Z,98645.77
2019-04-21T20:18:31.994Z,98645.75
2019-04-21T20:21:28.977Z,98647.71
2019-04-21T20:24:05.046Z,98647.72
2019-04-21T20:26:35.703Z,98646.88
2019-04-21T20:29:14.005Z,98644.91
2019-04-21T20:31:46.980Z,98646.88
2019-04-21T20:34:17.797Z,98638.49
2019-04-21T20:36:56.765Z,98650.75
2019-04-21T20:39:12.610Z,98643.77
2019-04-21T20:41:46.837Z,98640.08
2019-04-21T20:44:27.150Z,98643.70
2019-04-21T20:46:58.142Z,98645.21
2019-04-21T20:49:23.193Z,98644.82
2019-04-21T20:52:08.004Z,98637.30
2019-04-21T20:54:30.301Z,98641.55
2019-04-21T20:57:02.781Z,98635.69
2019-04-21T20:59:28.780Z,98640.73
2019-04-21T21:02:05.649Z,98635.73
2019-04-21T21:04:28.003Z,98636.27
2019-04-21T21:07:06.171Z,98637.34
2019-04-21T21:09:35.651Z,98632.73
2019-04-21T21:12:22.291Z,98633.81
2019-04-21T21:14:36.303Z,98637.98
2019-04-21T21:17:30.345Z,98637.44
2019-04-21T21:19:45.670Z,98628.17
2019-04-21T21:22:05.973Z,98628.70
2019-04-21T21:24:46.394Z,98631.16
2019-04-21T21:27:13.076Z,98612.38
2019-04-21T21:29:45.780Z,98612.38
2019-04-21T21:32:27.351Z,98615.16
2019-04-21T21:34:49.717Z,98615.09
2019-04-21T21:37:26.629Z,98615.09
2019-04-21T21:39:57.201Z,98608.41
2019-04-21T21:42:08.075Z,98609.58
2019-04-21T21:44:40.769Z,98616.05
2019-04-21T21:47:23.039Z,98615.88
2019-04-21T21:49:54.220Z,98621.94
2019-04-21T21:52:22.298Z,98613.48
2019-04-21T21:54:43.494Z,98609.61
2019-04-21T21:57:12.451Z,98617.12
2019-04-21T21:59:43.539Z,98622.36
2019-04-21T22:02:16.983Z,98622.36
2019-04-21T22:04:51.027Z,98612.18
2019-04-21T22:07:18.937Z,98615.77
2019-04-21T22:09:46.362Z,98612.98
2019-04-21T22:12:16.091Z,98603.84
2019-04-21T22:14:48.988Z,98603.84
2019-04-21T22:17:29.361Z,98602.95
2019-04-21T22:20:12.245Z,98596.77
2019-04-21T22:22:32.743Z,98597.14
2019-04-21T22:24:59.412Z,98597.14
2019-04-21T22:27:21.283Z,98595.69
2019-04-21T22:29:55.074Z,98599.36
2019-04-21T22:32:27.078Z,98595.19
2019-04-21T22:34:58.342Z,98590.72
2019-04-21T22:37:38.029Z,98595.42
2019-04-21T22:40:10.443Z,98597.67
2019-04-21T22:42:32.062Z,98597.67
2019-04-21T22:44:56.752Z,98592.44
2019-04-21T22:48:53.249Z,98590.42
2019-04-21T22:51:28.464Z,98591.34
2019-04-21T22:53:53.866Z,98578.09
2019-04-21T22:56:26.911Z,98591.57
2019-04-21T22:58:53.153Z,98591.57
2019-04-21T23:01:28.244Z,98592.13
2019-04-21T23:06:27.570Z,98583.50
2019-04-21T23:08:55.097Z,98583.69
2019-04-21T23:11:27.969Z,98574.16
2019-04-21T23:14:04.024Z,98579.19
2019-04-21T23:16:33.273Z,98578.39
2019-04-21T23:19:15.713Z,98577.48
2019-04-21T23:21:51.476Z,98577.48
2019-04-21T23:24:22.191Z,98566.99
2019-04-21T23:26:48.658Z,98561.50
2019-04-21T23:29:25.734Z,98564.34
2019-04-21T23:31:50.262Z,98560.00
2019-04-21T23:34:04.510Z,98556.03
2019-04-21T23:36:35.978Z,98559.28
2019-04-21T23:39:16.020Z,98541.20
2019-04-21T23:41:43.463Z,98541.20
2019-04-21T23:44:11.904Z,98551.56
2019-04-21T23:46:42.623Z,98550.83
2019-04-21T23:49:26.914Z,98550.17
2019-04-21T23:51:50.527Z,98551.30
2019-04-21T23:54:15.625Z,98544.93
2019-04-21T23:56:47.542Z,98544.03
2019-04-21T23:59:17.615Z,98544.03
